Time;durP1;ratioP1;P1;durP2;ratioP2;P2;SDS_P1;SDS_P2;PMS_P1;PMS_P2;Temp;Humidity;BMP_temperature;BMP_pressure;BME280_temperature;BME280_humidity;BME280_pressure;Samples;Min_cycle;Max_cycle;Signal;HPM_P1;HPM_P2
2023/06/27 00:01:04;;;;;;;2.93;2.03;;;28.10;35.50;;;;;;5018799;28;20205;-48
2023/06/27 00:03:33;;;;;;;2.67;2.27;;;28.10;35.60;;;;;;5015665;28;20467;-48
2023/06/27 00:06:04;;;;;;;3.30;1.80;;;28.10;35.80;;;;;;5027203;28;20444;-46
2023/06/27 00:08:33;;;;;;;4.60;2.00;;;28.10;35.70;;;;;;5029919;28;20455;-46
2023/06/27 00:10:59;;;;;;;3.47;1.90;;;28.10;35.80;;;;;;5026268;28;20467;-50
2023/06/27 00:13:25;;;;;;;6.77;2.23;;;28.10;35.90;;;;;;5029299;28;20852;-47
2023/06/27 00:15:52;;;;;;;3.30;1.93;;;28.00;35.70;;;;;;5029113;28;20442;-46
2023/06/27 00:18:23;;;;;;;3.07;1.90;;;28.10;35.80;;;;;;5018289;28;20680;-48
2023/06/27 00:20:49;;;;;;;6.00;2.23;;;28.10;35.90;;;;;;5024082;28;20444;-48
2023/06/27 00:23:33;;;;;;;2.37;2.00;;;28.00;36.00;;;;;;5021594;28;20971;-49
2023/06/27 00:25:59;;;;;;;1.97;1.70;;;28.00;36.10;;;;;;5028749;28;20510;-48
2023/06/27 00:28:25;;;;;;;4.27;2.20;;;28.10;36.30;;;;;;5028337;28;20539;-51
2023/06/27 00:30:51;;;;;;;3.10;1.90;;;28.10;36.30;;;;;;5010236;28;20537;-51
2023/06/27 00:33:16;;;;;;;5.20;3.23;;;28.10;36.20;;;;;;5021986;28;20189;-51
2023/06/27 00:35:42;;;;;;;3.30;1.97;;;28.10;36.20;;;;;;5027433;28;20248;-48
2023/06/27 00:38:07;;;;;;;2.50;2.30;;;28.10;35.70;;;;;;5022739;28;20236;-51
2023/06/27 00:40:33;;;;;;;3.20;2.17;;;28.10;36.00;;;;;;5007816;28;20716;-51
2023/06/27 00:42:59;;;;;;;5.20;2.53;;;28.00;36.20;;;;;;5015052;28;20194;-50
2023/06/27 00:45:24;;;;;;;3.07;2.10;;;28.10;36.10;;;;;;5016656;28;21445;-53
2023/06/27 00:47:53;;;;;;;4.40;2.10;;;28.10;35.80;;;;;;5016054;28;20538;-52
2023/06/27 00:50:24;;;;;;;2.90;2.23;;;28.00;36.00;;;;;;5011532;28;20186;-49
2023/06/27 00:52:51;;;;;;;1.87;1.77;;;28.00;36.20;;;;;;5015390;28;20810;-49
2023/06/27 00:55:17;;;;;;;2.40;2.00;;;28.10;35.90;;;;;;5023962;28;20447;-52
2023/06/27 00:57:46;;;;;;;4.10;1.80;;;28.10;36.00;;;;;;5023923;28;20491;-48
2023/06/27 01:00:13;;;;;;;2.70;1.80;;;28.10;36.00;;;;;;5023972;28;20448;-51
2023/06/27 01:02:38;;;;;;;3.70;2.00;;;28.10;36.10;;;;;;5028926;28;20444;-51
2023/06/27 01:05:06;;;;;;;3.17;2.23;;;28.10;36.30;;;;;;5030196;28;20446;-49
2023/06/27 01:07:51;;;;;;;2.50;2.17;;;28.10;36.20;;;;;;5029159;28;20561;-51
2023/06/27 01:10:45;;;;;;;3.93;2.47;;;28.10;36.10;;;;;;5022981;28;20597;-50
2023/06/27 01:13:32;;;;;;;3.13;2.10;;;28.10;36.10;;;;;;5015833;28;20460;-51
2023/06/27 01:15:58;;;;;;;3.30;2.50;;;28.20;36.20;;;;;;5018119;28;20440;-49
2023/06/27 01:18:27;;;;;;;2.47;1.70;;;28.10;36.20;;;;;;5024582;28;20522;-51
2023/06/27 01:20:53;;;;;;;2.67;1.93;;;28.20;36.20;;;;;;5021810;28;20444;-51
2023/06/27 01:23:25;;;;;;;2.57;2.37;;;28.10;36.00;;;;;;5020910;28;20563;-48
2023/06/27 01:26:08;;;;;;;4.00;2.40;;;28.10;36.20;;;;;;5018276;28;20488;-51
2023/06/27 01:28:36;;;;;;;2.33;1.93;;;28.10;36.10;;;;;;5027712;28;20455;-50
2023/06/27 01:31:02;;;;;;;3.70;2.00;;;28.10;36.40;;;;;;5019723;28;20851;-52
2023/06/27 01:33:51;;;;;;;2.87;2.10;;;28.10;35.80;;;;;;5017383;28;20456;-47
2023/06/27 01:36:19;;;;;;;2.80;2.13;;;28.10;35.90;;;;;;5017380;28;21005;-50
2023/06/27 01:38:52;;;;;;;5.13;2.10;;;28.10;35.70;;;;;;5020359;28;20515;-50
2023/06/27 01:41:20;;;;;;;3.37;2.00;;;28.10;36.10;;;;;;5023195;28;20521;-47
2023/06/27 01:43:47;;;;;;;2.20;2.00;;;28.10;36.10;;;;;;5011417;28;20473;-49
2023/06/27 01:46:13;;;;;;;2.00;1.80;;;28.10;36.00;;;;;;5012698;28;20440;-45
2023/06/27 01:48:43;;;;;;;3.73;1.93;;;28.20;35.90;;;;;;5025466;28;20509;-49
2023/06/27 01:51:09;;;;;;;3.13;1.90;;;28.20;35.90;;;;;;5017447;28;20452;-52
2023/06/27 01:53:36;;;;;;;7.90;2.00;;;28.20;36.00;;;;;;5010570;28;20449;-48
2023/06/27 01:56:02;;;;;;;2.80;1.83;;;28.20;35.80;;;;;;5021194;28;22894;-46
2023/06/27 01:58:28;;;;;;;3.63;2.30;;;28.20;35.80;;;;;;5015959;28;20492;-51
2023/06/27 02:00:54;;;;;;;2.87;2.10;;;28.20;36.00;;;;;;5015348;28;21022;-50
2023/06/27 02:03:19;;;;;;;5.00;2.17;;;28.20;35.90;;;;;;5014750;28;20227;-51
2023/06/27 02:05:45;;;;;;;4.47;2.40;;;28.20;35.80;;;;;;5016714;28;20652;-47
2023/06/27 02:08:10;;;;;;;3.70;1.90;;;28.20;35.90;;;;;;5011708;28;20202;-46
2023/06/27 02:10:36;;;;;;;2.40;1.87;;;28.20;36.50;;;;;;5014190;28;20605;-50
2023/06/27 02:13:03;;;;;;;2.83;2.47;;;28.20;36.10;;;;;;5017000;28;20197;-47
2023/06/27 02:15:29;;;;;;;5.97;2.27;;;28.20;36.10;;;;;;5020097;28;20200;-46
2023/06/27 02:17:55;;;;;;;4.67;2.70;;;28.10;36.30;;;;;;5021827;28;21325;-46
2023/06/27 02:20:20;;;;;;;3.50;2.30;;;28.10;36.20;;;;;;5019679;28;20193;-46
2023/06/27 02:22:46;;;;;;;4.07;1.90;;;28.20;36.30;;;;;;5030751;28;20614;-51
2023/06/27 02:25:11;;;;;;;2.57;2.07;;;28.10;36.20;;;;;;5023393;28;20256;-50
2023/06/27 02:27:37;;;;;;;6.10;2.23;;;28.10;36.20;;;;;;5031375;28;20205;-49
2023/06/27 02:30:03;;;;;;;3.40;2.20;;;28.10;36.30;;;;;;5032101;28;20197;-48
2023/06/27 02:32:28;;;;;;;7.83;2.13;;;28.10;36.30;;;;;;5030822;28;20201;-46
2023/06/27 02:34:54;;;;;;;3.17;1.73;;;28.10;36.30;;;;;;5011397;28;20629;-50
2023/06/27 02:37:20;;;;;;;2.40;1.83;;;28.10;36.40;;;;;;5018451;28;20251;-49
2023/06/27 02:39:45;;;;;;;3.30;2.00;;;28.00;36.40;;;;;;5017077;28;20664;-50
2023/06/27 02:42:11;;;;;;;4.20;2.17;;;28.00;36.50;;;;;;5029135;28;20568;-49
2023/06/27 02:44:36;;;;;;;4.23;2.30;;;28.00;36.50;;;;;;5016583;28;20197;-49
2023/06/27 02:47:02;;;;;;;5.67;2.33;;;28.00;37.20;;;;;;5020573;28;20197;-48
2023/06/27 02:49:27;;;;;;;3.43;2.00;;;28.00;36.70;;;;;;5016515;28;20352;-50
2023/06/27 02:51:53;;;;;;;2.73;1.90;;;28.00;36.60;;;;;;5017135;28;20304;-51
2023/06/27 02:54:19;;;;;;;1.60;1.50;;;28.00;36.70;;;;;;5018225;28;20575;-50
2023/06/27 02:56:44;;;;;;;2.37;2.07;;;28.00;36.60;;;;;;5023983;28;20601;-46
2023/06/27 02:59:10;;;;;;;3.60;2.00;;;28.00;36.70;;;;;;5024684;28;20194;-46
2023/06/27 03:01:35;;;;;;;4.33;2.50;;;27.90;36.60;;;;;;5025087;28;20186;-46
2023/06/27 03:04:01;;;;;;;3.70;2.20;;;27.90;36.60;;;;;;5029585;28;20280;-48
2023/06/27 03:06:27;;;;;;;2.40;2.17;;;27.90;36.70;;;;;;5017458;28;20197;-52
2023/06/27 03:08:54;;;;;;;3.53;2.37;;;27.90;36.80;;;;;;5022526;28;20194;-47
2023/06/27 03:11:19;;;;;;;5.30;2.10;;;27.90;36.70;;;;;;5027398;28;20211;-50
2023/06/27 03:13:45;;;;;;;2.27;1.73;;;27.90;36.80;;;;;;5022989;28;20439;-48
2023/06/27 03:16:11;;;;;;;3.23;2.00;;;27.90;36.80;;;;;;5028341;28;20200;-46
2023/06/27 03:18:36;;;;;;;5.33;2.37;;;27.80;36.70;;;;;;5026891;28;20581;-49
2023/06/27 03:21:02;;;;;;;2.40;2.17;;;27.80;36.90;;;;;;5030601;28;20645;-46
2023/06/27 03:23:28;;;;;;;2.23;2.03;;;27.80;36.80;;;;;;5027764;28;20657;-48
2023/06/27 03:25:53;;;;;;;3.50;2.10;;;27.80;36.80;;;;;;5028727;28;20304;-51
2023/06/27 03:28:19;;;;;;;3.57;2.00;;;27.80;36.80;;;;;;5030268;28;20242;-50
2023/06/27 03:30:44;;;;;;;4.03;1.90;;;27.80;36.80;;;;;;5028356;28;20217;-47
2023/06/27 03:33:10;;;;;;;4.00;2.80;;;27.80;36.50;;;;;;5023582;28;20618;-46
2023/06/27 03:35:36;;;;;;;4.77;2.27;;;27.80;36.70;;;;;;5030265;28;20201;-47
2023/06/27 03:38:02;;;;;;;2.70;1.90;;;27.80;36.60;;;;;;5030958;28;20488;-50
2023/06/27 03:40:28;;;;;;;2.33;1.50;;;27.80;36.80;;;;;;5025360;28;20212;-48
2023/06/27 03:42:55;;;;;;;3.20;1.90;;;27.70;36.80;;;;;;5030179;28;20428;-46
2023/06/27 03:45:21;;;;;;;3.53;1.97;;;27.70;36.70;;;;;;5026013;28;20250;-49
2023/06/27 03:47:47;;;;;;;4.77;1.83;;;27.70;36.80;;;;;;5025897;28;20443;-46
2023/06/27 03:50:13;;;;;;;4.50;3.27;;;27.70;36.90;;;;;;5026395;28;20610;-46
2023/06/27 03:52:38;;;;;;;4.23;2.37;;;27.70;37.10;;;;;;5029021;28;20689;-47
2023/06/27 03:55:05;;;;;;;3.10;2.23;;;27.70;37.20;;;;;;5024063;28;20278;-46
2023/06/27 03:57:31;;;;;;;4.20;2.10;;;27.70;37.30;;;;;;5029477;28;20697;-46
2023/06/27 03:59:56;;;;;;;3.37;2.30;;;27.60;37.30;;;;;;5024688;28;20440;-46
2023/06/27 04:02:22;;;;;;;3.33;2.10;;;27.70;37.30;;;;;;5024960;28;20197;-47
2023/06/27 04:04:48;;;;;;;3.60;2.00;;;27.70;37.30;;;;;;5024564;28;20203;-48
2023/06/27 04:07:14;;;;;;;4.43;1.50;;;27.70;37.40;;;;;;5020433;28;20557;-46
2023/06/27 04:09:40;;;;;;;2.70;2.00;;;27.70;37.30;;;;;;5018226;28;20201;-46
2023/06/27 04:12:06;;;;;;;3.97;1.90;;;27.70;37.30;;;;;;5016295;28;20447;-46
2023/06/27 04:14:32;;;;;;;1.90;1.80;;;27.70;37.30;;;;;;5014053;28;20530;-51
2023/06/27 04:16:57;;;;;;;4.27;2.10;;;27.70;37.10;;;;;;5022260;28;20530;-46
2023/06/27 04:19:23;;;;;;;3.37;2.00;;;27.70;37.30;;;;;;5025312;28;20212;-49
2023/06/27 04:21:49;;;;;;;4.43;1.83;;;27.60;37.30;;;;;;5029777;28;20284;-48
2023/06/27 04:24:14;;;;;;;4.30;2.07;;;27.60;37.30;;;;;;5029812;28;20610;-47
2023/06/27 04:26:42;;;;;;;3.37;2.10;;;27.60;36.90;;;;;;5022806;28;20206;-47
2023/06/27 04:29:08;;;;;;;2.37;2.07;;;27.60;37.30;;;;;;5022117;28;20854;-47
2023/06/27 04:31:34;;;;;;;5.00;2.40;;;27.50;37.50;;;;;;5026744;28;20442;-51
2023/06/27 04:34:00;;;;;;;6.87;1.93;;;27.50;37.30;;;;;;5017144;28;21028;-53
2023/06/27 04:36:26;;;;;;;4.10;1.67;;;27.50;37.20;;;;;;5014712;28;23089;-46
2023/06/27 04:38:52;;;;;;;2.00;1.90;;;27.50;37.20;;;;;;5024725;28;20224;-48
2023/06/27 04:41:18;;;;;;;4.53;2.53;;;27.50;37.80;;;;;;5022963;28;20958;-48
2023/06/27 04:43:43;;;;;;;2.63;2.20;;;27.40;38.00;;;;;;5030565;28;20193;-46
2023/06/27 04:46:09;;;;;;;4.70;2.23;;;27.40;38.10;;;;;;5031262;28;20548;-47
2023/06/27 04:48:35;;;;;;;2.43;2.23;;;27.50;38.10;;;;;;5028338;28;20213;-50
2023/06/27 04:51:00;;;;;;;2.77;2.10;;;27.50;38.00;;;;;;5025262;28;20639;-46
2023/06/27 04:53:26;;;;;;;2.00;1.83;;;27.50;37.50;;;;;;5026690;28;20197;-46
2023/06/27 04:55:53;;;;;;;2.80;2.27;;;27.40;38.00;;;;;;5030911;28;20850;-46
2023/06/27 04:58:19;;;;;;;4.83;2.07;;;27.50;37.90;;;;;;5028995;28;20233;-47
2023/06/27 05:00:47;;;;;;;2.73;2.10;;;27.40;38.60;;;;;;5023728;28;20435;-46
2023/06/27 05:03:15;;;;;;;5.53;2.20;;;27.40;39.00;;;;;;5021557;28;20440;-49
2023/06/27 05:05:41;;;;;;;5.50;2.33;;;27.40;38.20;;;;;;5012544;28;20435;-48
2023/06/27 05:08:07;;;;;;;3.10;1.73;;;27.40;38.20;;;;;;5011114;28;20786;-46
2023/06/27 05:10:33;;;;;;;3.90;2.30;;;27.60;37.90;;;;;;5019157;28;20200;-49
2023/06/27 05:13:00;;;;;;;4.70;2.60;;;27.60;37.70;;;;;;5017015;28;20798;-50
2023/06/27 05:15:26;;;;;;;4.50;2.07;;;27.60;37.70;;;;;;5016351;28;20468;-51
2023/06/27 05:17:53;;;;;;;5.23;2.30;;;27.60;37.70;;;;;;5013632;28;20972;-46
2023/06/27 05:20:19;;;;;;;2.30;2.00;;;27.60;37.60;;;;;;5019309;28;20918;-50
2023/06/27 05:22:45;;;;;;;3.70;2.17;;;27.50;37.70;;;;;;5013818;28;20455;-47
2023/06/27 05:25:12;;;;;;;3.30;2.00;;;27.50;38.10;;;;;;5019783;28;20484;-47
2023/06/27 05:27:37;;;;;;;3.00;2.07;;;27.40;38.00;;;;;;5016655;28;20201;-48
2023/06/27 05:30:03;;;;;;;1.80;1.70;;;27.20;38.30;;;;;;5024911;28;20466;-51
2023/06/27 05:32:29;;;;;;;3.80;2.63;;;27.30;38.20;;;;;;5025502;28;20205;-47
2023/06/27 05:34:55;;;;;;;5.23;2.17;;;27.40;38.10;;;;;;5017999;28;20450;-47
2023/06/27 05:37:20;;;;;;;5.17;2.13;;;27.40;38.60;;;;;;5026072;28;20298;-47
2023/06/27 05:39:46;;;;;;;2.37;2.17;;;27.50;37.80;;;;;;5029489;28;20664;-47
2023/06/27 05:42:11;;;;;;;7.43;2.53;;;27.50;37.80;;;;;;5026934;28;20193;-47
2023/06/27 05:44:37;;;;;;;2.50;2.10;;;27.50;37.90;;;;;;5023641;28;20664;-46
2023/06/27 05:47:03;;;;;;;3.20;2.57;;;27.60;37.70;;;;;;5028037;28;20201;-47
2023/06/27 05:49:29;;;;;;;4.83;1.97;;;27.60;37.80;;;;;;5022178;28;20194;-48
2023/06/27 05:51:54;;;;;;;3.10;1.70;;;27.60;37.90;;;;;;5027311;28;20907;-46
2023/06/27 05:54:20;;;;;;;3.20;2.10;;;27.60;37.60;;;;;;5029259;28;20200;-47
2023/06/27 05:56:46;;;;;;;2.50;2.03;;;27.70;37.60;;;;;;5028960;28;20199;-47
2023/06/27 05:59:11;;;;;;;3.30;2.33;;;27.70;37.60;;;;;;5029736;28;20197;-47
2023/06/27 06:01:37;;;;;;;2.20;2.00;;;27.80;37.30;;;;;;5028245;28;20228;-46
2023/06/27 06:04:06;;;;;;;3.67;1.90;;;27.90;37.30;;;;;;5028284;28;20247;-49
2023/06/27 06:06:37;;;;;;;3.47;2.33;;;27.80;37.90;;;;;;5023952;28;20220;-47
2023/06/27 06:09:06;;;;;;;4.43;2.00;;;27.80;37.00;;;;;;5022809;28;20455;-50
2023/06/27 06:11:36;;;;;;;2.57;1.80;;;27.80;37.10;;;;;;5022718;28;20435;-48
2023/06/27 06:14:02;;;;;;;2.23;2.03;;;27.90;37.40;;;;;;5023275;28;20458;-48
2023/06/27 06:16:30;;;;;;;2.33;1.97;;;27.90;37.20;;;;;;5022308;28;20979;-48
2023/06/27 06:18:56;;;;;;;3.93;3.13;;;27.90;37.40;;;;;;5022306;28;20570;-46
2023/06/27 06:21:21;;;;;;;2.73;1.77;;;27.70;37.70;;;;;;5019598;28;20477;-49
2023/06/27 06:23:47;;;;;;;3.17;1.90;;;27.80;37.50;;;;;;5018670;28;20190;-48
2023/06/27 06:26:12;;;;;;;3.20;2.17;;;27.80;37.40;;;;;;5024091;28;20620;-46
2023/06/27 06:28:38;;;;;;;2.97;2.20;;;27.80;37.10;;;;;;5027166;28;20192;-49
2023/06/27 06:31:04;;;;;;;4.30;2.00;;;27.80;37.20;;;;;;5024127;28;20200;-50
2023/06/27 06:33:30;;;;;;;5.80;2.63;;;27.90;37.00;;;;;;5027545;28;20193;-47
2023/06/27 06:35:56;;;;;;;3.73;2.10;;;27.90;36.80;;;;;;5019939;28;20433;-47
2023/06/27 06:38:21;;;;;;;3.83;2.10;;;27.90;36.10;;;;;;5020887;28;20221;-48
2023/06/27 06:40:47;;;;;;;4.23;2.03;;;27.90;35.50;;;;;;5024336;28;20554;-46
2023/06/27 06:43:13;;;;;;;5.47;2.80;;;28.10;34.30;;;;;;5023289;28;20656;-48
2023/06/27 06:45:38;;;;;;;2.30;2.00;;;28.20;33.80;;;;;;5021630;28;20240;-48
2023/06/27 06:48:04;;;;;;;3.40;1.80;;;28.00;33.50;;;;;;5021039;28;20198;-48
2023/06/27 06:50:31;;;;;;;3.57;2.37;;;28.00;33.40;;;;;;5025623;28;20189;-47
2023/06/27 06:52:57;;;;;;;4.33;2.00;;;27.90;33.70;;;;;;5026218;28;20436;-48
2023/06/27 06:55:23;;;;;;;3.03;2.03;;;27.80;34.10;;;;;;5024188;28;21025;-47
2023/06/27 06:57:49;;;;;;;2.90;1.80;;;27.80;33.90;;;;;;5023330;28;20312;-46
2023/06/27 07:00:15;;;;;;;2.10;1.90;;;27.80;34.00;;;;;;5031248;28;20197;-46
2023/06/27 07:02:41;;;;;;;3.90;2.10;;;27.70;33.80;;;;;;5031952;28;20198;-46
2023/06/27 07:05:08;;;;;;;2.13;1.87;;;27.80;33.30;;;;;;5031649;28;20848;-46
2023/06/27 07:07:34;;;;;;;48.23;6.13;;;27.80;33.20;;;;;;5032381;28;20854;-46
2023/06/27 07:10:00;;;;;;;5.37;2.07;;;27.80;33.90;;;;;;5026662;28;20445;-46
2023/06/27 07:12:25;;;;;;;3.47;2.10;;;27.80;33.70;;;;;;5029347;28;20209;-46
2023/06/27 07:14:51;;;;;;;2.77;2.20;;;27.80;33.50;;;;;;5027489;28;20553;-48
2023/06/27 07:17:16;;;;;;;11.90;1.97;;;27.90;33.30;;;;;;5028731;28;20256;-47
2023/06/27 07:19:42;;;;;;;3.10;2.10;;;27.80;33.80;;;;;;5020062;28;20675;-48
2023/06/27 07:22:09;;;;;;;15.13;3.27;;;27.80;34.00;;;;;;5031646;28;20816;-49
2023/06/27 07:24:34;;;;;;;54.67;6.40;;;27.90;33.70;;;;;;5025496;28;20233;-47
2023/06/27 07:27:00;;;;;;;8.30;2.50;;;27.90;33.90;;;;;;5026028;28;20960;-46
2023/06/27 07:29:26;;;;;;;2.87;1.90;;;28.00;33.30;;;;;;5016221;28;20665;-49
2023/06/27 07:31:51;;;;;;;1.80;1.70;;;28.00;33.30;;;;;;5031621;28;20221;-47
2023/06/27 07:34:17;;;;;;;4.63;1.80;;;28.00;33.10;;;;;;5015034;28;20274;-46
2023/06/27 07:36:43;;;;;;;2.90;1.97;;;28.10;33.00;;;;;;5013122;28;20201;-46
2023/06/27 07:39:08;;;;;;;4.27;1.93;;;28.10;32.40;;;;;;5012607;28;20212;-47
2023/06/27 07:41:34;;;;;;;2.43;1.60;;;28.00;32.30;;;;;;5021103;28;20259;-47
2023/06/27 07:44:00;;;;;;;2.30;1.80;;;28.00;32.90;;;;;;5018448;28;20272;-47
2023/06/27 07:46:25;;;;;;;2.17;1.87;;;28.10;33.50;;;;;;5031123;28;20209;-49
2023/06/27 07:48:51;;;;;;;4.90;1.90;;;27.90;33.60;;;;;;5031990;28;20272;-47
2023/06/27 07:51:16;;;;;;;3.30;1.97;;;28.00;32.70;;;;;;5031778;28;20188;-46
2023/06/27 07:53:42;;;;;;;3.53;2.40;;;28.20;32.70;;;;;;5014712;28;20182;-48
2023/06/27 07:56:07;;;;;;;3.07;1.80;;;28.30;33.00;;;;;;5012911;28;20198;-46
2023/06/27 07:58:33;;;;;;;3.20;1.70;;;28.50;32.30;;;;;;5020068;28;20565;-49
2023/06/27 08:00:59;;;;;;;3.30;2.00;;;28.60;32.40;;;;;;5032231;28;20228;-46
2023/06/27 08:03:25;;;;;;;3.17;1.67;;;28.60;32.30;;;;;;5029966;28;20205;-47
2023/06/27 08:05:54;;;;;;;5.20;2.07;;;28.70;32.50;;;;;;5030155;28;20209;-46
2023/06/27 08:08:19;;;;;;;4.30;2.03;;;28.90;32.70;;;;;;5025885;28;20535;-50
2023/06/27 08:10:45;;;;;;;3.20;1.70;;;29.00;31.70;;;;;;5027498;28;20527;-46
2023/06/27 08:13:10;;;;;;;5.40;1.93;;;29.10;31.70;;;;;;5025169;28;20190;-46
2023/06/27 08:15:36;;;;;;;2.83;1.90;;;29.00;33.20;;;;;;5021943;28;20224;-48
2023/06/27 08:18:02;;;;;;;4.33;2.17;;;29.10;32.30;;;;;;5025748;28;20225;-49
2023/06/27 08:20:28;;;;;;;2.73;2.17;;;29.20;31.70;;;;;;5027081;28;20280;-48
2023/06/27 08:22:54;;;;;;;2.73;2.23;;;29.20;31.70;;;;;;5026246;28;20532;-46
2023/06/27 08:25:19;;;;;;;3.53;2.27;;;29.10;31.70;;;;;;5028638;28;20236;-46
2023/06/27 08:27:45;;;;;;;3.30;2.10;;;29.20;30.80;;;;;;5019878;28;20230;-47
2023/06/27 08:30:11;;;;;;;7.93;2.33;;;29.10;31.00;;;;;;5023859;28;20201;-46
2023/06/27 08:32:36;;;;;;;2.90;2.10;;;29.00;31.50;;;;;;5018295;28;20251;-46
2023/06/27 08:35:05;;;;;;;2.80;2.10;;;28.80;32.00;;;;;;5029679;28;20448;-46
2023/06/27 08:37:31;;;;;;;1.80;1.70;;;28.80;32.50;;;;;;5017555;28;20311;-48
2023/06/27 08:39:56;;;;;;;4.00;2.07;;;28.80;32.20;;;;;;5027731;28;20555;-47
2023/06/27 08:42:22;;;;;;;2.63;1.90;;;28.90;31.80;;;;;;5024648;28;20747;-48
2023/06/27 08:44:48;;;;;;;4.10;1.90;;;29.10;31.70;;;;;;5027376;28;20220;-51
2023/06/27 08:47:18;;;;;;;2.30;1.80;;;29.20;31.60;;;;;;5025361;28;20444;-47
2023/06/27 08:49:50;;;;;;;5.23;2.33;;;29.30;31.60;;;;;;5026084;28;20242;-48
2023/06/27 08:52:22;;;;;;;2.97;1.80;;;29.30;31.70;;;;;;5024791;28;20479;-49
2023/06/27 08:54:52;;;;;;;3.07;2.03;;;29.20;31.60;;;;;;5026280;28;20451;-47
2023/06/27 08:57:19;;;;;;;3.27;1.90;;;29.30;30.80;;;;;;5019737;28;21220;-50
2023/06/27 08:59:46;;;;;;;4.53;2.37;;;29.30;31.20;;;;;;5017581;28;20445;-48
2023/06/27 09:02:13;;;;;;;5.03;2.20;;;29.40;31.30;;;;;;5025016;28;20534;-51
2023/06/27 09:04:41;;;;;;;3.23;2.30;;;29.40;31.20;;;;;;5016912;28;20557;-50
2023/06/27 09:07:06;;;;;;;3.90;2.57;;;29.30;31.50;;;;;;5029061;28;20451;-48
2023/06/27 09:09:34;;;;;;;3.97;1.83;;;29.20;31.60;;;;;;5030344;28;20420;-53
2023/06/27 09:12:02;;;;;;;3.27;2.40;;;29.10;31.70;;;;;;5026543;28;20654;-47
2023/06/27 09:14:28;;;;;;;2.40;2.20;;;29.20;32.50;;;;;;5028696;28;20448;-51
2023/06/27 09:16:54;;;;;;;2.97;1.83;;;29.20;31.50;;;;;;5023498;28;20451;-48
2023/06/27 09:19:21;;;;;;;5.17;2.33;;;29.30;32.30;;;;;;5024281;28;22478;-47
2023/06/27 09:21:48;;;;;;;3.87;2.27;;;29.50;32.00;;;;;;5025185;28;20664;-52
2023/06/27 09:24:14;;;;;;;2.00;1.70;;;29.60;31.30;;;;;;5029586;28;20460;-49
2023/06/27 09:26:40;;;;;;;4.80;2.67;;;29.50;31.20;;;;;;5030059;28;20455;-50
2023/06/27 09:29:06;;;;;;;3.10;2.30;;;29.70;30.80;;;;;;5022424;28;20186;-51
2023/06/27 09:31:33;;;;;;;4.00;1.90;;;29.70;30.60;;;;;;5028969;28;20436;-48
2023/06/27 09:34:11;;;;;;;4.43;2.10;;;29.90;30.60;;;;;;5028671;28;20284;-50
2023/06/27 09:36:41;;;;;;;5.00;2.13;;;29.90;30.70;;;;;;5029719;28;20935;-51
2023/06/27 09:39:08;;;;;;;3.10;2.30;;;30.20;30.60;;;;;;5023434;28;20484;-48
2023/06/27 09:41:46;;;;;;;2.90;2.30;;;30.20;30.00;;;;;;5022933;28;20443;-50
2023/06/27 09:44:19;;;;;;;3.23;1.93;;;30.30;30.00;;;;;;5022886;28;20451;-51
2023/06/27 09:46:46;;;;;;;5.53;1.90;;;30.40;29.60;;;;;;5016346;28;20451;-50
2023/06/27 09:49:12;;;;;;;5.47;2.17;;;30.60;29.50;;;;;;5029203;28;20818;-48
2023/06/27 09:51:37;;;;;;;2.13;1.93;;;30.60;29.30;;;;;;5030493;28;20424;-48
2023/06/27 09:54:04;;;;;;;2.83;2.03;;;30.70;29.80;;;;;;5021608;28;20440;-52
2023/06/27 09:56:30;;;;;;;3.43;2.00;;;30.60;30.70;;;;;;5028592;28;20201;-50
2023/06/27 09:58:57;;;;;;;6.77;2.80;;;30.50;30.20;;;;;;5028843;28;20592;-48
2023/06/27 10:01:26;;;;;;;8.90;2.43;;;30.70;29.60;;;;;;5030055;28;20531;-52
2023/06/27 10:03:51;;;;;;;4.33;2.13;;;30.50;29.50;;;;;;5023719;28;20444;-52
2023/06/27 10:06:17;;;;;;;7.17;2.20;;;30.60;29.90;;;;;;5028006;28;20489;-53
2023/06/27 10:08:43;;;;;;;4.70;2.73;;;30.70;29.80;;;;;;5029742;28;20604;-49
2023/06/27 10:11:08;;;;;;;3.10;2.90;;;30.90;29.40;;;;;;5029487;28;20197;-52
2023/06/27 10:13:34;;;;;;;4.07;2.57;;;31.00;29.00;;;;;;5020334;28;20194;-52
2023/06/27 10:16:02;;;;;;;5.07;2.47;;;31.10;29.00;;;;;;5024394;28;20213;-51
2023/06/27 10:18:27;;;;;;;3.87;2.10;;;31.10;29.00;;;;;;5020963;28;20221;-52
2023/06/27 10:20:56;;;;;;;5.40;2.20;;;31.10;28.90;;;;;;5021560;28;20459;-51
2023/06/27 10:23:24;;;;;;;5.10;2.40;;;31.20;29.00;;;;;;5026664;28;20224;-49
2023/06/27 10:25:49;;;;;;;3.17;2.30;;;31.30;29.00;;;;;;5028528;28;20467;-50
2023/06/27 10:28:15;;;;;;;3.50;2.23;;;31.20;28.60;;;;;;5029288;28;20907;-52
2023/06/27 10:30:46;;;;;;;3.23;2.33;;;31.30;28.30;;;;;;5022099;28;20213;-52
2023/06/27 10:33:28;;;;;;;5.17;2.50;;;31.40;27.90;;;;;;5024274;28;20221;-49
2023/06/27 10:36:05;;;;;;;3.20;2.37;;;31.40;28.20;;;;;;5016319;28;20459;-50
2023/06/27 10:38:38;;;;;;;5.03;2.10;;;31.40;28.50;;;;;;5014201;28;20488;-52
2023/06/27 10:41:05;;;;;;;3.57;2.40;;;31.30;28.50;;;;;;5015807;28;20445;-52
2023/06/27 10:43:47;;;;;;;4.47;2.27;;;31.20;28.40;;;;;;5021799;28;20447;-50
2023/06/27 10:46:26;;;;;;;3.50;2.33;;;31.30;29.60;;;;;;5022527;28;20439;-51
2023/06/27 10:49:03;;;;;;;3.50;2.43;;;31.40;28.20;;;;;;5033474;28;20436;-51
2023/06/27 10:51:35;;;;;;;4.43;2.70;;;31.60;28.70;;;;;;5031570;28;20483;-52
2023/06/27 10:54:12;;;;;;;2.90;2.20;;;31.50;28.20;;;;;;5026519;28;20444;-52
2023/06/27 10:56:44;;;;;;;3.90;2.33;;;31.40;28.50;;;;;;5033747;28;20434;-53
2023/06/27 10:59:19;;;;;;;5.33;2.27;;;31.20;27.90;;;;;;5023973;28;20568;-52
2023/06/27 11:01:52;;;;;;;2.60;2.40;;;31.20;28.30;;;;;;5014367;28;20441;-52
2023/06/27 11:04:25;;;;;;;5.07;2.70;;;31.20;27.90;;;;;;5030598;28;20455;-47
2023/06/27 11:07:00;;;;;;;7.67;2.23;;;31.20;27.60;;;;;;5032359;28;20820;-51
2023/06/27 11:09:28;;;;;;;3.80;2.70;;;31.30;28.10;;;;;;5033203;28;20832;-49
2023/06/27 11:12:14;;;;;;;5.70;2.17;;;31.30;28.10;;;;;;5031510;28;20523;-52
2023/06/27 11:14:45;;;;;;;3.40;2.00;;;31.30;28.20;;;;;;5024048;28;20491;-50
2023/06/27 11:17:11;;;;;;;4.93;2.10;;;31.30;28.50;;;;;;5026613;28;20832;-52
2023/06/27 11:19:38;;;;;;;5.97;2.60;;;31.30;28.00;;;;;;5016241;28;20810;-51
2023/06/27 11:22:05;;;;;;;4.20;2.07;;;31.20;27.90;;;;;;5013046;28;20433;-52
2023/06/27 11:24:31;;;;;;;4.30;2.00;;;31.00;28.40;;;;;;5019582;28;20503;-50
2023/06/27 11:27:01;;;;;;;7.83;2.37;;;31.00;28.50;;;;;;5032543;28;20440;-51
2023/06/27 11:29:27;;;;;;;5.30;2.60;;;31.10;28.20;;;;;;5013454;28;20762;-51
2023/06/27 11:31:55;;;;;;;5.57;2.07;;;31.00;28.40;;;;;;5012554;28;20425;-49
2023/06/27 11:34:21;;;;;;;7.33;2.30;;;31.20;28.20;;;;;;5018835;28;21542;-53
2023/06/27 11:36:47;;;;;;;3.13;1.93;;;31.20;28.60;;;;;;5024874;28;20451;-50
2023/06/27 11:39:14;;;;;;;2.50;2.00;;;31.30;28.60;;;;;;5024167;28;20452;-52
2023/06/27 11:41:45;;;;;;;4.93;2.10;;;31.30;28.40;;;;;;5030230;28;20466;-51
2023/06/27 11:44:13;;;;;;;2.93;2.33;;;30.80;28.20;;;;;;5028425;28;20788;-52
2023/06/27 11:46:51;;;;;;;2.70;1.80;;;30.50;28.50;;;;;;5028061;28;20444;-52
2023/06/27 11:49:24;;;;;;;4.57;2.20;;;30.60;28.80;;;;;;5025328;28;20534;-50
2023/06/27 11:51:51;;;;;;;2.33;2.13;;;30.70;28.70;;;;;;5017667;28;20972;-51
2023/06/27 11:54:19;;;;;;;3.40;2.40;;;31.00;28.70;;;;;;5023164;28;20435;-52
2023/06/27 11:56:45;;;;;;;3.30;2.23;;;31.20;28.60;;;;;;5025286;28;20949;-52
2023/06/27 11:59:12;;;;;;;8.30;2.50;;;31.40;28.20;;;;;;5028756;28;20459;-49
2023/06/27 12:01:44;;;;;;;3.17;2.20;;;31.50;28.00;;;;;;5027060;28;20244;-50
2023/06/27 12:04:15;;;;;;;2.70;2.10;;;31.50;27.30;;;;;;5028348;28;20483;-47
2023/06/27 12:06:43;;;;;;;2.30;2.10;;;31.60;27.40;;;;;;5032252;28;20950;-48
2023/06/27 12:09:24;;;;;;;2.60;1.80;;;31.60;27.40;;;;;;5027632;28;21164;-48
2023/06/27 12:12:03;;;;;;;7.70;2.23;;;31.60;27.40;;;;;;5020155;28;20856;-51
2023/06/27 12:14:29;;;;;;;3.43;2.30;;;31.70;27.20;;;;;;5030597;28;20452;-51
2023/06/27 12:16:55;;;;;;;4.03;2.43;;;31.60;28.00;;;;;;5032239;28;20470;-50
2023/06/27 12:19:22;;;;;;;2.83;2.13;;;31.80;27.50;;;;;;5028244;28;20784;-51
2023/06/27 12:21:48;;;;;;;8.20;2.90;;;31.90;26.80;;;;;;5030262;28;20275;-47
2023/06/27 12:24:14;;;;;;;8.53;3.07;;;32.00;26.70;;;;;;5030022;28;20554;-49
2023/06/27 12:26:40;;;;;;;5.13;2.40;;;32.20;26.50;;;;;;5030689;28;20542;-48
2023/06/27 12:29:07;;;;;;;4.07;2.10;;;32.20;26.80;;;;;;5025151;28;20242;-47
2023/06/27 12:31:35;;;;;;;2.43;2.07;;;32.20;26.70;;;;;;5020181;28;20243;-48
2023/06/27 12:34:01;;;;;;;3.43;2.40;;;32.40;26.30;;;;;;5016380;28;20432;-47
2023/06/27 12:36:28;;;;;;;3.40;2.37;;;32.50;26.00;;;;;;5022717;28;20462;-48
2023/06/27 12:38:54;;;;;;;2.37;2.17;;;32.40;26.50;;;;;;5022052;28;20561;-49
2023/06/27 12:41:21;;;;;;;3.37;2.37;;;32.20;25.90;;;;;;5022188;28;20456;-48
2023/06/27 12:43:47;;;;;;;2.60;2.40;;;32.20;26.40;;;;;;5025102;28;20531;-48
2023/06/27 12:46:13;;;;;;;1.70;1.60;;;32.20;26.50;;;;;;5030099;28;20440;-47